Flight Track Log - Related Links

Times and Time Zones

All times are in EDT time to prevent confusion due to time zone crossing. See the SKW5246 flight status page for this flight to view local times or setup timezone preferences in your user account.

Time Position Orientation Groundspeed Altitude Reporting Facility
EDT Latitude Longitude Course Direction KTS MPH feet Rate Location/Type
Fri 07:46:21 PM 37.6333 -122.3833 22° Northeast 145 167 800  Level Northern Cal TRACON
Fri 07:47:21 PM 37.6667 -122.3667 22° Northeast 201 231 2,700 1,900 Climbing Northern Cal TRACON
Fri 07:48:21 PM 37.7000 -122.3000 58° Northeast 263 303 4,600 1,977 Climbing Northern Cal TRACON
Fri 07:50:14 PM 37.8131 -122.1917 37° Northeast 285 328 8,400 2,034 Climbing Oakland Center
Fri 07:51:15 PM 37.8800 -122.1236 39° Northeast 304 350 10,500 1,561 Climbing Oakland Center
Fri 07:52:17 PM 37.9711 -122.0319 38° Northeast 355 409 11,600 1,415 Climbing Oakland Center
Fri 07:53:18 PM 38.0519 -121.9525 38° Northeast 369 425 13,400 1,918 Climbing Oakland Center
Fri 07:54:19 PM 38.1306 -121.8733 38° Northeast 363 418 15,500 1,721 Climbing Oakland Center
Fri 07:55:20 PM 38.2081 -121.7928 39° Northeast 362 417 16,900 1,475 Climbing Oakland Center
Fri 07:56:21 PM 38.2897 -121.7144 37° Northeast 368 423 18,500 1,475 Climbing Oakland Center
Fri 07:57:22 PM 38.3736 -121.6350 37° Northeast 376 433 19,900 1,377 Climbing Oakland Center
Fri 07:58:23 PM 38.4567 -121.5569 36° Northeast 379 436 21,300 1,122 Climbing Oakland Center
Fri 07:59:25 PM 38.5447 -121.4725 37° Northeast 385 443 22,200 878 Climbing Oakland Center
Fri 08:00:26 PM 38.6331 -121.3900 36° Northeast 394 453 23,100 934 Climbing Oakland Center
Fri 08:01:27 PM 38.7281 -121.3003 36° Northeast 406 467 24,100 934 Climbing Oakland Center
Fri 08:02:28 PM 38.8208 -121.2111 37° Northeast 411 473 25,000 885 Climbing Oakland Center
Fri 08:03:29 PM 38.9147 -121.1214 37° Northeast 417 480 25,900 787 Climbing Oakland Center
Fri 08:04:30 PM 39.0086 -121.0306 37° Northeast 421 484 26,600 689 Climbing Oakland Center
Fri 08:05:31 PM 39.1225 -120.9194 37° Northeast 427 491 27,300 639 Climbing Oakland Center
Fri 08:06:32 PM 39.2178 -120.8247 38° Northeast 432 497 27,900 590 Climbing Oakland Center
Fri 08:07:33 PM 39.3161 -120.7306 37° Northeast 438 504 28,500 492 Climbing Oakland Center
Fri 08:08:34 PM 39.4144 -120.6347 37° Northeast 441 507 28,900 492 Climbing Oakland Center
Fri 08:09:35 PM 39.5144 -120.5389 36° Northeast 446 513 29,500 689 Climbing Oakland Center
Fri 08:10:36 PM 39.6147 -120.4422 37° Northeast 448 516 30,300 836 Climbing Oakland Center
Fri 08:11:37 PM 39.7106 -120.3461 38° Northeast 439 505 31,200 537 Climbing Oakland Center
Fri 08:12:39 PM 39.8083 -120.2483 38° Northeast 441 507 31,400 341 Climbing Oakland Center
Fri 08:13:40 PM 39.9078 -120.1489 37° Northeast 449 517 31,900 541 Climbing Oakland Center
Fri 08:14:41 PM 40.0100 -120.0469 37° Northeast 451 519 32,500 541 Climbing Oakland Center
Fri 08:15:42 PM 40.1119 -119.9450 37° Northeast 457 526 33,000 246 Climbing Oakland Center
Fri 08:16:43 PM 40.2114 -119.8439 38° Northeast 451 519 33,000  Level Oakland Center
Fri 08:17:44 PM 40.3136 -119.7400 38° Northeast 460 529 33,000  Level Oakland Center
Fri 08:18:45 PM 40.4097 -119.6267 42° Northeast 466 536 33,000  Level Oakland Center
Fri 08:19:46 PM 40.5031 -119.5033 45° Northeast 472 543 33,000  Level Oakland Center
Fri 08:20:47 PM 40.6144 -119.3583 45° Northeast 470 541 33,000  Level Oakland Center
Fri 08:21:48 PM 40.7067 -119.2339 46° Northeast 471 542 33,000  Level Oakland Center
Fri 08:22:49 PM 40.8003 -119.1097 45° Northeast 475 547 33,000  Level Oakland Center
Fri 08:23:50 PM 40.8847 -119.0008 44° Northeast 474 545 33,000  Level Oakland Center
Fri 08:24:51 PM 40.9886 -118.8644 45° Northeast 472 543 33,000  Level Oakland Center
Fri 08:25:52 PM 41.0800 -118.7458 44° Northeast 476 548 33,000  Level Oakland Center
Fri 08:26:53 PM 41.1747 -118.6306 42° Northeast 480 552 33,000  Level Oakland Center
Fri 08:27:54 PM 41.2756 -118.4850 47° Northeast 480 552 33,000  Level Oakland Center
Fri 08:28:55 PM 41.3594 -118.3533 50° Northeast 482 555 33,000  Level Oakland Center
Fri 08:29:56 PM 41.4428 -118.2253 49° Northeast 477 549 33,000  Level Oakland Center
Fri 08:31:23 PM 41.5697 -118.0314 49° Northeast 483 556 33,000  Level Salt Lake Center
Fri 08:32:24 PM 41.6647 -117.8781 50° Northeast 478 550 33,000  Level Salt Lake Center
Fri 08:33:26 PM 41.7453 -117.7414 52° Northeast 485 558 33,000  Level Salt Lake Center
Fri 08:34:27 PM 41.8406 -117.5797 52° Northeast 486 559 33,000  Level Salt Lake Center
Fri 08:35:29 PM 41.9186 -117.4431 52° Northeast 481 554 33,000  Level Salt Lake Center
Fri 08:36:30 PM 42.0039 -117.3175 48° Northeast 473 544 33,000  Level Salt Lake Center
Fri 08:37:32 PM 42.1164 -117.1925 39° Northeast 466 536 33,000  Level Salt Lake Center
Fri 08:38:33 PM 42.2244 -117.1086 30° Northeast 468 539 33,000 -195 Level Salt Lake Center
Fri 08:39:35 PM 42.3447 -117.0317 25° Northeast 467 537 32,600 -1,415 Descending Salt Lake Center
Fri 08:40:36 PM 42.4706 -116.9492 26° Northeast 450 518 30,100 -2,732 Descending Salt Lake Center
Fri 08:41:38 PM 42.5800 -116.8775 26° Northeast 454 522 27,000 -3,024 Descending Salt Lake Center
Fri 08:42:39 PM 42.6883 -116.8061 26° Northeast 453 521 23,900 -3,268 Descending Salt Lake Center
Fri 08:43:41 PM 42.8117 -116.7269 25° Northeast 436 502 20,300 -3,366 Descending Salt Lake Center
Fri 08:44:42 PM 42.9150 -116.6564 27° Northeast 424 488 17,000 -3,073 Descending Salt Lake Center
Fri 08:45:44 PM 43.0208 -116.5878 25° Northeast 403 464 14,000 -1,951 Descending Salt Lake Center
Fri 08:46:45 PM 43.1147 -116.5247 26° Northeast 357 411 13,000 -1,328 Descending Salt Lake Center
Fri 08:47:46 PM 43.1983 -116.4722 25° Northeast 319 367 11,300 -1,707 Descending Salt Lake Center
Fri 08:48:48 PM 43.2744 -116.4258 24° Northeast 311 358 9,500 -1,756 Descending Salt Lake Center
Fri 08:49:49 PM 43.3389 -116.3444 43° Northeast 302 348 7,700 -1,756 Descending Salt Lake Center
Fri 08:50:51 PM 43.3989 -116.2672 43° Northeast 287 330 5,900 -1,463 Descending Salt Lake Center
Fri 08:51:52 PM 43.4528 -116.1992 43° Northeast 275 316 4,700 -683 Descending Salt Lake Center
Fri 08:52:54 PM 43.4994 -116.1319 46° Northeast 236 272 4,500 -390 Descending Salt Lake Center
Fri 08:53:55 PM 43.5383 -116.1467 345° North 169 194 3,900 -443 Descending Salt Lake Center
Fri 08:54:56 PM 43.5514 -116.1839 296° West 148 170 3,600 -295 Descending Salt Lake Center
Fri 08:56:00 PM 43.5500 -116.2167 36° Northeast  Level FlightAware Approximate
Fri 09:03:00 PM 43.5644 -116.2229 36° Northeast  Level Estimated

Login

Don't have an account? Register now (free) for customized features, flight alerts, and more!